createdAt,value
2022-08-09T00:00:05.933Z,73.66
2022-08-09T00:01:42.950Z,73.53
2022-08-09T00:02:54.719Z,73.70
2022-08-09T00:04:05.589Z,73.81
2022-08-09T00:06:18.689Z,73.64
2022-08-09T00:06:40.263Z,73.41
2022-08-09T00:07:46.001Z,73.52
2022-08-09T00:08:51.804Z,73.46
2022-08-09T00:09:53.967Z,73.45
2022-08-09T00:10:55.640Z,73.30
2022-08-09T00:12:03.655Z,73.28
2022-08-09T00:13:16.793Z,73.29
2022-08-09T00:14:22.085Z,73.52
2022-08-09T00:15:59.317Z,73.12
2022-08-09T00:17:00.431Z,73.07
2022-08-09T00:18:05.297Z,73.31
2022-08-09T00:19:13.447Z,73.14
2022-08-09T00:20:21.198Z,73.52
2022-08-09T00:21:23.729Z,73.31
2022-08-09T00:22:35.130Z,73.02
2022-08-09T00:23:54.572Z,72.70
2022-08-09T00:25:00.089Z,73.12
2022-08-09T00:26:07.073Z,72.95
2022-08-09T00:27:08.781Z,72.94
2022-08-09T00:28:10.457Z,73.18
2022-08-09T00:29:39.287Z,72.91
2022-08-09T00:30:35.052Z,72.40
2022-08-09T00:31:59.630Z,72.36
2022-08-09T00:32:58.549Z,72.08
2022-08-09T00:34:00.348Z,72.01
2022-08-09T00:35:04.687Z,71.66
2022-08-09T00:36:06.479Z,71.87
2022-08-09T00:37:10.086Z,71.69
2022-08-09T00:38:13.799Z,71.57
2022-08-09T00:40:01.894Z,71.40
2022-08-09T00:40:40.542Z,71.08
2022-08-09T00:44:13.636Z,70.63
2022-08-09T00:44:16.317Z,71.03
2022-08-09T00:44:38.424Z,70.44
2022-08-09T00:45:50.405Z,70.62
2022-08-09T00:47:05.676Z,70.50
2022-08-09T00:48:07.628Z,70.53
2022-08-09T00:49:17.158Z,70.42
2022-08-09T00:50:22.932Z,70.49
2022-08-09T00:51:25.196Z,70.02
2022-08-09T00:52:30.843Z,69.95
2022-08-09T00:53:32.869Z,69.75
2022-08-09T00:54:38.151Z,69.93
2022-08-09T00:56:04.987Z,69.59
2022-08-09T00:57:10.131Z,69.85
2022-08-09T00:58:14.798Z,69.85
2022-08-09T00:59:40.729Z,69.38
2022-08-09T01:00:45.772Z,69.49
2022-08-09T01:01:50.429Z,69.55
2022-08-09T01:03:16.736Z,69.63
2022-08-09T01:04:37.664Z,69.36
2022-08-09T01:06:13.884Z,69.18
2022-08-09T01:07:38.089Z,68.82
2022-08-09T01:09:15.684Z,68.48
2022-08-09T01:10:25.965Z,68.59
2022-08-09T01:11:55.477Z,68.27
2022-08-09T01:13:13.586Z,68.10
2022-08-09T01:14:26.493Z,68.56
2022-08-09T01:15:40.819Z,69.05
2022-08-09T01:16:47.415Z,69.42
2022-08-09T01:17:58.953Z,69.35
2022-08-09T01:19:17.242Z,69.72
2022-08-09T01:21:13.482Z,69.67
2022-08-09T01:22:24.193Z,69.57
2022-08-09T01:24:07.406Z,69.71
2022-08-09T01:25:48.871Z,69.97
2022-08-09T01:26:54.966Z,70.79
2022-08-09T01:27:59.694Z,70.82
2022-08-09T01:29:04.472Z,70.79
2022-08-09T01:30:28.277Z,71.19
2022-08-09T01:32:29.899Z,71.37
2022-08-09T01:33:01.226Z,71.34
2022-08-09T01:34:06.524Z,71.28
2022-08-09T01:35:37.272Z,71.29
2022-08-09T01:36:43.410Z,71.53
2022-08-09T01:38:08.023Z,71.58
2022-08-09T01:39:12.402Z,71.77
2022-08-09T01:40:23.330Z,71.92
2022-08-09T01:41:35.673Z,72.32
2022-08-09T01:42:40.890Z,72.33
2022-08-09T01:43:51.983Z,72.26
2022-08-09T01:44:56.674Z,72.24
2022-08-09T01:46:02.484Z,72.16
2022-08-09T01:47:06.820Z,72.48
2022-08-09T01:48:16.482Z,73.23
2022-08-09T01:49:24.187Z,73.18
2022-08-09T01:50:30.066Z,73.28
2022-08-09T01:51:44.664Z,73.58
2022-08-09T01:53:00.107Z,74.27
2022-08-09T01:54:05.419Z,74.09
2022-08-09T01:55:11.147Z,74.11
2022-08-09T01:56:15.483Z,73.60
2022-08-09T01:57:40.327Z,73.14
2022-08-09T01:58:51.514Z,73.50
2022-08-09T01:59:59.869Z,73.30
2022-08-09T02:01:05.172Z,73.42
2022-08-09T02:02:13.492Z,73.60
2022-08-09T02:03:18.954Z,73.13
2022-08-09T02:04:26.908Z,73.17
2022-08-09T02:05:38.145Z,72.91
2022-08-09T02:07:17.957Z,74.11
2022-08-09T02:08:58.676Z,73.77
2022-08-09T02:10:11.027Z,73.50
2022-08-09T02:11:17.069Z,73.12
2022-08-09T02:12:22.528Z,72.56
2022-08-09T02:13:37.448Z,72.59
2022-08-09T02:14:44.934Z,72.75
2022-08-09T02:15:51.465Z,72.59
2022-08-09T02:17:09.004Z,72.59
2022-08-09T02:18:22.998Z,72.72
2022-08-09T02:19:38.606Z,73.39
2022-08-09T02:20:51.346Z,73.22
2022-08-09T02:21:58.885Z,73.41
2022-08-09T02:23:13.053Z,73.31
2022-08-09T02:24:26.232Z,73.30
2022-08-09T02:25:42.318Z,73.06
2022-08-09T02:26:51.682Z,72.74
2022-08-09T02:28:09.875Z,72.95
2022-08-09T02:29:23.541Z,73.07
2022-08-09T02:30:28.270Z,72.62
2022-08-09T02:31:34.018Z,72.34
2022-08-09T02:32:44.740Z,72.65
2022-08-09T02:34:06.263Z,72.20
2022-08-09T02:36:01.533Z,72.50
2022-08-09T02:36:52.671Z,72.00
2022-08-09T02:38:00.533Z,71.67
2022-08-09T02:39:19.817Z,71.55
2022-08-09T02:40:27.110Z,71.75
2022-08-09T02:41:44.756Z,71.53
2022-08-09T02:42:50.985Z,72.62
2022-08-09T02:43:59.739Z,72.71
2022-08-09T02:45:09.446Z,72.89
2022-08-09T02:46:16.022Z,72.46
2022-08-09T02:47:22.323Z,72.26
2022-08-09T02:48:31.183Z,72.60
2022-08-09T02:49:41.404Z,72.03
2022-08-09T02:50:56.294Z,72.21
2022-08-09T02:52:03.750Z,72.36
2022-08-09T02:53:26.367Z,72.17
2022-08-09T02:54:30.894Z,71.95
2022-08-09T02:55:46.097Z,71.92
2022-08-09T02:56:59.194Z,72.00
2022-08-09T02:58:35.470Z,72.04
2022-08-09T02:59:37.478Z,72.25
2022-08-09T03:00:57.692Z,72.26
2022-08-09T03:02:06.224Z,72.31
2022-08-09T03:03:10.994Z,72.44
2022-08-09T03:04:19.149Z,72.58
2022-08-09T03:05:23.134Z,72.63
2022-08-09T03:06:27.860Z,72.73
2022-08-09T03:07:32.708Z,72.62
2022-08-09T03:08:38.082Z,72.71
2022-08-09T03:09:43.316Z,72.87
2022-08-09T03:10:58.116Z,73.04
2022-08-09T03:12:10.585Z,73.23
2022-08-09T03:13:15.954Z,73.04
2022-08-09T03:14:21.899Z,73.06
2022-08-09T03:16:04.167Z,73.18
2022-08-09T03:16:54.398Z,73.32
2022-08-09T03:17:58.986Z,73.37
2022-08-09T03:19:02.734Z,73.48
2022-08-09T03:20:11.128Z,73.51
2022-08-09T03:21:17.681Z,73.56
2022-08-09T03:22:31.077Z,73.56
2022-08-09T03:23:32.993Z,73.77
2022-08-09T03:24:42.359Z,73.68
2022-08-09T03:25:59.237Z,73.72
2022-08-09T03:27:09.426Z,74.07
2022-08-09T03:28:14.801Z,73.99
2022-08-09T03:29:22.648Z,73.90
2022-08-09T03:30:33.230Z,73.92
2022-08-09T03:31:42.701Z,74.20
2022-08-09T03:33:01.915Z,74.33
2022-08-09T03:34:15.021Z,74.28
2022-08-09T03:35:24.904Z,74.20
2022-08-09T03:36:39.564Z,74.27
2022-08-09T03:37:55.673Z,74.39
2022-08-09T03:39:00.244Z,74.34
2022-08-09T03:40:02.339Z,74.31
2022-08-09T03:41:06.758Z,74.28
2022-08-09T03:42:08.510Z,74.22
2022-08-09T03:43:11.474Z,74.11
2022-08-09T03:44:15.483Z,74.44
2022-08-09T03:45:17.466Z,74.50
2022-08-09T03:46:39.431Z,74.25
2022-08-09T03:47:46.283Z,74.42
2022-08-09T03:48:54.948Z,74.28
2022-08-09T03:49:59.048Z,74.27
2022-08-09T03:51:02.709Z,74.33
2022-08-09T03:52:07.278Z,74.48
2022-08-09T03:53:10.901Z,74.45
2022-08-09T03:54:14.656Z,74.46
2022-08-09T03:55:19.382Z,74.54
2022-08-09T03:56:23.761Z,74.74
2022-08-09T03:57:26.737Z,74.80
2022-08-09T03:58:33.840Z,74.87
2022-08-09T03:59:52.837Z,75.06
2022-08-09T04:00:56.450Z,75.22
2022-08-09T04:01:59.834Z,75.26
2022-08-09T04:03:02.780Z,75.43
2022-08-09T04:04:10.156Z,75.34
2022-08-09T04:05:26.746Z,75.43
2022-08-09T04:06:29.919Z,75.70
2022-08-09T04:07:47.356Z,75.66
2022-08-09T04:08:53.727Z,75.75
2022-08-09T04:09:55.421Z,75.71
2022-08-09T04:11:01.593Z,75.73
2022-08-09T04:12:11.706Z,75.87
2022-08-09T04:13:13.883Z,75.81
2022-08-09T04:14:53.246Z,75.94
2022-08-09T04:16:18.235Z,76.10
2022-08-09T04:17:07.878Z,76.15
2022-08-09T04:18:17.838Z,76.02
2022-08-09T04:19:42.848Z,76.07
2022-08-09T04:20:42.733Z,76.10
2022-08-09T04:21:46.296Z,76.22
2022-08-09T04:22:50.257Z,76.23
2022-08-09T04:23:54.387Z,76.13
2022-08-09T04:25:00.023Z,75.90
2022-08-09T04:26:03.695Z,75.88
2022-08-09T04:27:05.396Z,76.06
2022-08-09T04:28:10.559Z,76.04
2022-08-09T04:29:15.789Z,75.82
2022-08-09T04:30:20.864Z,76.01
2022-08-09T04:31:37.353Z,76.33
2022-08-09T04:32:46.729Z,76.01
2022-08-09T04:33:52.013Z,76.26
2022-08-09T04:34:57.443Z,76.37
2022-08-09T04:35:59.423Z,76.24
2022-08-09T04:37:02.060Z,76.28
2022-08-09T04:38:03.914Z,76.31
2022-08-09T04:39:09.971Z,76.34
2022-08-09T04:40:19.338Z,76.59
2022-08-09T04:41:33.147Z,76.69
2022-08-09T04:42:35.878Z,76.55
2022-08-09T04:43:39.171Z,76.66
2022-08-09T04:44:57.284Z,76.71
2022-08-09T04:46:01.156Z,76.88
2022-08-09T04:47:04.359Z,76.89
2022-08-09T04:48:10.573Z,76.65
2022-08-09T04:49:14.784Z,76.59
2022-08-09T04:50:16.755Z,76.56
2022-08-09T04:51:26.184Z,76.50
2022-08-09T04:52:29.509Z,76.24
2022-08-09T04:53:32.490Z,76.20
2022-08-09T04:54:36.128Z,76.07
2022-08-09T04:55:39.527Z,76.02
2022-08-09T04:56:44.138Z,75.76
2022-08-09T04:57:54.277Z,75.38
2022-08-09T04:59:04.840Z,75.29
2022-08-09T05:00:10.369Z,74.97
2022-08-09T05:01:16.300Z,74.95
2022-08-09T05:02:20.377Z,74.75
2022-08-09T05:03:41.058Z,74.55
2022-08-09T05:04:45.153Z,74.73
2022-08-09T05:05:52.062Z,74.79
2022-08-09T05:07:06.131Z,74.95
2022-08-09T05:08:15.037Z,74.65
2022-08-09T05:09:17.166Z,74.34
2022-08-09T05:10:18.940Z,74.57
2022-08-09T05:11:20.672Z,74.29
2022-08-09T05:12:22.787Z,74.03
2022-08-09T05:13:24.455Z,73.95
2022-08-09T05:14:31.464Z,74.39
2022-08-09T05:15:39.209Z,74.52
2022-08-09T05:16:59.130Z,74.28
2022-08-09T05:18:37.955Z,73.69
2022-08-09T05:19:25.734Z,73.46
2022-08-09T05:20:29.771Z,73.33
2022-08-09T05:21:36.640Z,73.03
2022-08-09T05:23:55.528Z,72.95
2022-08-09T05:24:12.523Z,72.90
2022-08-09T05:25:16.538Z,72.51
2022-08-09T05:26:26.620Z,72.52
2022-08-09T05:27:46.342Z,72.52
2022-08-09T05:28:49.918Z,72.54
2022-08-09T05:29:53.956Z,72.30
2022-08-09T05:30:56.010Z,72.65
2022-08-09T05:32:00.271Z,72.36
2022-08-09T05:33:02.050Z,72.09
2022-08-09T05:34:04.211Z,71.98
2022-08-09T05:35:06.836Z,72.14
2022-08-09T05:36:09.384Z,71.95
2022-08-09T05:37:13.117Z,71.94
2022-08-09T05:38:21.674Z,72.01
2022-08-09T05:39:29.542Z,72.08
2022-08-09T05:40:32.634Z,71.51
2022-08-09T05:41:34.295Z,71.29
2022-08-09T05:42:36.299Z,71.32
2022-08-09T05:43:39.099Z,71.06
2022-08-09T05:44:47.695Z,70.89
2022-08-09T05:45:55.699Z,71.43
2022-08-09T05:46:58.869Z,71.46
2022-08-09T05:48:01.442Z,70.38
2022-08-09T05:49:03.237Z,69.92
2022-08-09T05:50:30.447Z,70.36
2022-08-09T05:51:42.996Z,70.50
2022-08-09T05:52:53.290Z,70.25
2022-08-09T05:53:57.892Z,70.55
2022-08-09T05:55:03.047Z,70.47
2022-08-09T05:56:09.236Z,70.45
2022-08-09T05:57:19.112Z,70.61
2022-08-09T05:58:21.053Z,70.27
2022-08-09T05:59:23.061Z,70.69
2022-08-09T06:00:33.849Z,70.66
2022-08-09T06:01:42.314Z,70.79
2022-08-09T06:02:46.624Z,70.51
2022-08-09T06:03:58.516Z,70.68
2022-08-09T06:05:01.056Z,70.36
2022-08-09T06:06:05.875Z,70.85
2022-08-09T06:07:09.331Z,70.37
2022-08-09T06:08:11.425Z,70.45
2022-08-09T06:09:40.580Z,69.87
2022-08-09T06:10:40.830Z,70.16
2022-08-09T06:11:57.659Z,70.27
2022-08-09T06:13:12.442Z,70.25
2022-08-09T06:14:20.354Z,69.65
2022-08-09T06:15:22.546Z,69.89
2022-08-09T06:16:29.540Z,69.34
2022-08-09T06:17:40.507Z,69.52
2022-08-09T06:18:42.434Z,69.33
2022-08-09T06:19:44.092Z,69.00
2022-08-09T06:20:49.849Z,69.17
2022-08-09T06:21:58.388Z,69.09
2022-08-09T06:23:00.658Z,69.23
2022-08-09T06:24:02.655Z,68.72
2022-08-09T06:25:08.634Z,68.81
2022-08-09T06:26:21.028Z,69.64
2022-08-09T06:27:23.115Z,69.85
2022-08-09T06:28:31.856Z,69.99
2022-08-09T06:29:33.777Z,69.66
2022-08-09T06:30:50.678Z,68.97
2022-08-09T06:32:09.037Z,69.23
2022-08-09T06:33:41.271Z,69.10
2022-08-09T06:34:36.149Z,69.00
2022-08-09T06:35:57.477Z,69.20
2022-08-09T06:37:00.400Z,69.66
2022-08-09T06:38:05.740Z,69.67
2022-08-09T06:39:11.674Z,69.93
2022-08-09T06:40:24.044Z,69.30
2022-08-09T06:42:07.762Z,69.29
2022-08-09T06:42:48.184Z,68.62
2022-08-09T06:43:49.825Z,68.47
2022-08-09T06:44:55.342Z,68.86
2022-08-09T06:46:06.520Z,68.95
2022-08-09T06:47:09.983Z,69.24
2022-08-09T06:48:12.181Z,68.83
2022-08-09T06:49:29.010Z,69.19
2022-08-09T06:50:40.102Z,68.98
2022-08-09T06:51:43.058Z,68.87
2022-08-09T06:52:48.477Z,68.56
2022-08-09T06:53:50.761Z,67.99
2022-08-09T06:54:54.973Z,68.06
2022-08-09T06:55:57.010Z,68.63
2022-08-09T06:56:58.786Z,68.95
2022-08-09T06:58:04.137Z,68.85
2022-08-09T07:00:50.316Z,69.55
2022-08-09T07:00:54.931Z,69.11
2022-08-09T07:01:54.471Z,69.68
2022-08-09T07:03:02.203Z,68.79
2022-08-09T07:04:07.859Z,69.01
2022-08-09T07:05:12.155Z,68.92
2022-08-09T07:06:13.997Z,68.79
2022-08-09T07:07:59.511Z,68.81
2022-08-09T07:08:39.655Z,69.21
2022-08-09T07:09:54.990Z,68.69
2022-08-09T07:11:06.739Z,68.03
2022-08-09T07:12:17.353Z,68.62
2022-08-09T07:13:29.372Z,68.77
2022-08-09T07:14:32.020Z,68.79
2022-08-09T07:16:34.986Z,69.07
2022-08-09T07:16:58.265Z,69.21
2022-08-09T07:18:02.386Z,69.18
2022-08-09T07:19:04.736Z,69.21
2022-08-09T07:20:08.117Z,69.28
2022-08-09T07:21:10.302Z,69.06
2022-08-09T07:22:13.013Z,68.71
2022-08-09T07:23:18.490Z,68.72
2022-08-09T07:24:21.694Z,68.68
2022-08-09T07:25:38.832Z,68.66
2022-08-09T07:26:44.650Z,69.27
2022-08-09T07:27:53.570Z,68.56
2022-08-09T07:29:12.044Z,68.48
2022-08-09T07:30:15.323Z,68.21
2022-08-09T07:31:19.966Z,68.13
2022-08-09T07:32:32.495Z,67.86
2022-08-09T07:33:52.457Z,67.33
2022-08-09T07:34:54.984Z,67.64
2022-08-09T07:35:56.623Z,67.71
2022-08-09T07:36:58.273Z,67.91
2022-08-09T07:38:04.546Z,67.83
2022-08-09T07:39:11.881Z,68.09
2022-08-09T07:40:26.990Z,68.23
2022-08-09T07:41:38.806Z,68.35
2022-08-09T07:42:58.934Z,68.19
2022-08-09T07:44:01.447Z,67.92
2022-08-09T07:45:15.051Z,67.45
2022-08-09T07:46:27.955Z,67.62
2022-08-09T07:47:30.071Z,67.50
2022-08-09T07:48:52.860Z,67.54
2022-08-09T07:50:07.602Z,67.33
2022-08-09T07:52:06.048Z,67.59
2022-08-09T07:52:31.988Z,67.61
2022-08-09T07:54:04.402Z,67.43
2022-08-09T07:54:57.562Z,66.84
2022-08-09T07:56:03.673Z,67.00
2022-08-09T07:57:11.839Z,67.10
2022-08-09T07:58:14.223Z,67.67
2022-08-09T07:59:25.589Z,67.86
2022-08-09T08:00:36.843Z,68.01
2022-08-09T08:01:58.087Z,66.95
2022-08-09T08:03:01.826Z,65.94
2022-08-09T08:04:10.601Z,65.80
2022-08-09T08:05:18.819Z,65.59
2022-08-09T08:06:21.228Z,65.49
2022-08-09T08:09:01.779Z,65.32
2022-08-09T08:09:03.681Z,66.50
2022-08-09T08:10:11.001Z,66.90
2022-08-09T08:12:10.857Z,67.37
2022-08-09T08:12:36.249Z,65.11
2022-08-09T08:13:45.225Z,64.82
2022-08-09T08:14:58.699Z,65.25
2022-08-09T08:16:01.630Z,64.43
2022-08-09T08:17:08.853Z,64.36
2022-08-09T08:18:14.317Z,64.17
2022-08-09T08:19:17.373Z,63.80
2022-08-09T08:20:29.096Z,64.13
2022-08-09T08:21:32.441Z,64.60
2022-08-09T08:22:34.466Z,65.24
2022-08-09T08:23:38.394Z,65.75
2022-08-09T08:24:47.238Z,65.51
2022-08-09T08:26:06.175Z,65.22
2022-08-09T08:27:16.723Z,64.03
2022-08-09T08:28:32.459Z,63.90
2022-08-09T08:29:39.480Z,64.40
2022-08-09T08:30:47.872Z,64.63
2022-08-09T08:32:04.556Z,64.16
2022-08-09T08:33:11.983Z,63.94
2022-08-09T08:34:25.321Z,63.83
2022-08-09T08:35:37.171Z,63.58
2022-08-09T08:36:49.018Z,62.92
2022-08-09T08:38:01.841Z,62.68
2022-08-09T08:39:08.397Z,62.59
2022-08-09T08:40:12.938Z,62.68
2022-08-09T08:41:14.698Z,62.58
2022-08-09T08:42:16.978Z,62.83
2022-08-09T08:43:18.787Z,62.08
2022-08-09T08:44:29.279Z,62.03
2022-08-09T08:45:51.534Z,62.00
2022-08-09T08:47:02.534Z,62.90
2022-08-09T08:48:10.170Z,62.59
2022-08-09T08:49:19.285Z,61.76
2022-08-09T08:50:21.192Z,60.52
2022-08-09T08:51:25.887Z,60.90
2022-08-09T08:52:58.956Z,61.08
2022-08-09T08:54:07.595Z,61.71
2022-08-09T08:55:15.071Z,62.17
2022-08-09T08:56:25.281Z,62.43
2022-08-09T08:57:30.254Z,60.82
2022-08-09T08:58:37.746Z,60.75
2022-08-09T08:59:46.585Z,61.06
2022-08-09T09:00:54.308Z,61.02
2022-08-09T09:01:59.896Z,60.53
2022-08-09T09:03:12.288Z,59.46
2022-08-09T09:04:37.815Z,59.92
2022-08-09T09:06:02.975Z,59.31
2022-08-09T09:07:09.997Z,59.65
2022-08-09T09:08:29.694Z,59.51
2022-08-09T09:09:58.273Z,59.51
2022-08-09T09:10:58.629Z,60.16
2022-08-09T09:12:01.298Z,60.06
2022-08-09T09:13:09.221Z,60.23
2022-08-09T09:14:19.832Z,60.46
2022-08-09T09:15:28.671Z,60.51
2022-08-09T09:16:34.329Z,60.18
2022-08-09T09:17:48.689Z,60.05
2022-08-09T09:19:10.802Z,60.56
2022-08-09T09:20:17.358Z,60.34
2022-08-09T09:21:26.187Z,60.21
2022-08-09T09:22:29.429Z,60.35
2022-08-09T09:23:49.761Z,59.83
2022-08-09T09:26:03.557Z,59.94
2022-08-09T09:26:23.906Z,59.82
2022-08-09T09:28:06.556Z,60.27
2022-08-09T09:29:04.192Z,59.57
2022-08-09T09:30:40.084Z,59.34
2022-08-09T09:32:01.840Z,59.49
2022-08-09T09:33:15.912Z,59.92
2022-08-09T09:34:18.993Z,60.53
2022-08-09T09:35:20.669Z,61.09
2022-08-09T09:36:22.892Z,61.10
2022-08-09T09:37:31.802Z,61.48
2022-08-09T09:38:47.127Z,60.83
2022-08-09T09:39:57.714Z,60.43
2022-08-09T09:41:02.383Z,59.48
2022-08-09T09:42:10.391Z,58.95
2022-08-09T09:43:20.712Z,59.00
2022-08-09T09:44:31.451Z,59.82
2022-08-09T09:47:16.533Z,57.86
2022-08-09T09:48:20.749Z,57.28
2022-08-09T09:49:50.083Z,57.75
2022-08-09T09:50:51.402Z,57.84
2022-08-09T09:52:06.467Z,57.60
2022-08-09T09:53:21.349Z,57.02
2022-08-09T09:54:23.597Z,56.91
2022-08-09T09:55:32.339Z,57.14
2022-08-09T09:56:38.395Z,56.53
2022-08-09T09:58:16.470Z,56.99
2022-08-09T09:59:35.357Z,57.51
2022-08-09T10:00:54.677Z,57.14
2022-08-09T10:02:01.051Z,57.25
2022-08-09T10:03:11.440Z,57.17
2022-08-09T10:04:23.027Z,57.44
2022-08-09T10:06:03.355Z,56.76
2022-08-09T10:06:54.731Z,54.97
2022-08-09T10:08:28.079Z,55.35
2022-08-09T10:09:28.061Z,56.49
2022-08-09T10:10:31.720Z,56.81
2022-08-09T10:11:59.978Z,56.52
2022-08-09T10:12:56.246Z,55.83
2022-08-09T10:13:58.261Z,55.68
2022-08-09T10:15:07.618Z,54.92
2022-08-09T10:16:56.852Z,54.61
2022-08-09T10:18:11.680Z,55.56
2022-08-09T10:19:13.436Z,55.76
2022-08-09T10:20:27.426Z,56.54
2022-08-09T10:21:36.133Z,55.36
2022-08-09T10:22:39.349Z,56.22
2022-08-09T10:23:43.449Z,56.72
2022-08-09T10:24:45.293Z,56.82
2022-08-09T10:26:06.798Z,57.30
2022-08-09T10:27:17.193Z,57.67
2022-08-09T10:28:27.525Z,57.15
2022-08-09T10:30:43.498Z,57.11
2022-08-09T10:32:38.548Z,57.02
2022-08-09T10:34:08.423Z,57.41
2022-08-09T10:35:04.076Z,57.77
2022-08-09T10:36:11.476Z,57.81
2022-08-09T10:37:14.033Z,57.47
2022-08-09T10:38:55.364Z,57.35
2022-08-09T10:39:49.471Z,57.64
2022-08-09T10:40:51.617Z,57.69
2022-08-09T10:41:53.631Z,58.08
2022-08-09T10:42:57.118Z,58.23
2022-08-09T10:44:01.451Z,57.71
2022-08-09T10:45:11.882Z,57.43
2022-08-09T10:47:00.604Z,56.51
2022-08-09T10:48:30.069Z,56.55
2022-08-09T10:49:51.290Z,56.55
2022-08-09T10:51:29.784Z,55.79
2022-08-09T10:53:04.398Z,54.94
2022-08-09T10:54:12.473Z,55.40
2022-08-09T10:55:28.674Z,55.46
2022-08-09T10:56:41.017Z,54.55
2022-08-09T10:57:43.712Z,54.61
2022-08-09T10:58:53.985Z,53.89
2022-08-09T10:59:58.548Z,53.59
2022-08-09T11:03:06.780Z,53.73
2022-08-09T11:03:11.917Z,53.86
2022-08-09T11:04:19.832Z,54.78
2022-08-09T11:05:31.131Z,55.67
2022-08-09T11:06:37.268Z,56.54
2022-08-09T11:07:57.509Z,54.89
2022-08-09T11:09:15.978Z,53.81
2022-08-09T11:10:54.841Z,50.58
2022-08-09T11:11:58.807Z,46.90
2022-08-09T11:13:49.234Z,47.55
2022-08-09T11:14:48.726Z,46.37
2022-08-09T11:15:51.027Z,44.64
2022-08-09T11:17:19.452Z,45.26
2022-08-09T11:18:44.897Z,46.16
2022-08-09T11:20:10.532Z,45.48
2022-08-09T11:21:56.872Z,44.95
2022-08-09T11:23:07.169Z,44.07
2022-08-09T11:24:13.221Z,42.93
2022-08-09T11:25:45.137Z,42.64
2022-08-09T11:26:54.674Z,41.48
2022-08-09T11:28:08.070Z,41.26
2022-08-09T11:30:05.097Z,41.88
2022-08-09T11:31:49.118Z,41.34
2022-08-09T11:33:04.317Z,40.85
2022-08-09T11:34:15.561Z,42.29
2022-08-09T11:35:35.182Z,41.77
2022-08-09T11:36:48.854Z,38.96
2022-08-09T11:37:53.151Z,38.35
2022-08-09T11:39:02.638Z,38.18
2022-08-09T11:40:08.493Z,39.09
2022-08-09T11:41:10.158Z,39.40
2022-08-09T11:42:42.150Z,38.04
2022-08-09T11:43:49.370Z,37.13
2022-08-09T11:44:55.294Z,37.74
2022-08-09T11:46:04.888Z,38.57
2022-08-09T11:47:11.021Z,38.06
2022-08-09T11:48:26.104Z,37.96
2022-08-09T11:50:56.053Z,38.57
2022-08-09T11:52:53.883Z,37.75
2022-08-09T11:53:44.067Z,35.83
2022-08-09T11:54:37.625Z,36.55
2022-08-09T11:55:53.981Z,36.18
2022-08-09T11:58:00.684Z,36.30
2022-08-09T11:59:05.291Z,36.65
2022-08-09T12:00:13.180Z,35.70
2022-08-09T12:02:01.158Z,35.73
2022-08-09T12:02:53.568Z,35.53
2022-08-09T12:04:20.573Z,35.50
2022-08-09T12:05:42.116Z,36.62
2022-08-09T12:06:56.377Z,36.81
2022-08-09T12:08:00.951Z,36.21
2022-08-09T12:09:19.465Z,36.29
2022-08-09T12:10:38.586Z,35.21
2022-08-09T12:12:02.086Z,37.76
2022-08-09T12:14:07.942Z,36.57
2022-08-09T12:14:36.979Z,35.63
2022-08-09T12:15:50.280Z,36.60
2022-08-09T12:16:53.967Z,36.85
2022-08-09T12:17:58.152Z,37.21
2022-08-09T12:19:00.313Z,38.14
2022-08-09T12:20:22.874Z,37.51
2022-08-09T12:21:38.806Z,39.28
2022-08-09T12:22:56.138Z,38.74
2022-08-09T12:24:08.670Z,38.83
2022-08-09T12:25:14.882Z,37.92
2022-08-09T12:26:19.633Z,38.49
2022-08-09T12:28:58.675Z,38.09
2022-08-09T12:29:13.568Z,38.00
2022-08-09T12:30:36.628Z,37.30
2022-08-09T12:31:31.074Z,37.17
2022-08-09T12:33:01.970Z,37.27
2022-08-09T12:34:03.775Z,37.94
2022-08-09T12:35:10.893Z,36.17
2022-08-09T12:36:31.934Z,35.58
2022-08-09T12:37:49.862Z,35.25
2022-08-09T12:38:54.746Z,36.31
2022-08-09T12:40:07.529Z,35.96
2022-08-09T12:41:10.515Z,34.01
2022-08-09T12:42:16.185Z,33.94
2022-08-09T12:43:20.919Z,32.76
2022-08-09T12:44:46.360Z,32.78
2022-08-09T12:45:59.411Z,33.46
2022-08-09T12:47:02.739Z,32.27
2022-08-09T12:48:20.137Z,33.25
2022-08-09T12:49:33.659Z,31.48
2022-08-09T12:50:36.425Z,31.17
2022-08-09T12:52:00.169Z,30.91
2022-08-09T12:53:08.734Z,30.12
2022-08-09T12:54:11.649Z,32.31
2022-08-09T12:56:14.626Z,31.25
2022-08-09T12:56:54.665Z,29.77
2022-08-09T12:57:59.095Z,29.49
2022-08-09T12:59:17.654Z,29.71
2022-08-09T13:00:35.356Z,31.12
2022-08-09T13:01:48.612Z,30.89
2022-08-09T13:02:55.613Z,30.09
2022-08-09T13:04:04.466Z,30.16
2022-08-09T13:05:06.222Z,30.32
2022-08-09T13:06:13.477Z,31.18
2022-08-09T13:07:19.923Z,31.73
2022-08-09T13:08:40.063Z,31.36
2022-08-09T13:09:55.884Z,30.58
2022-08-09T13:11:22.731Z,30.73
2022-08-09T13:12:24.427Z,29.91
2022-08-09T13:14:38.594Z,31.53
2022-08-09T13:15:09.813Z,30.64
2022-08-09T13:16:15.812Z,30.99
2022-08-09T13:17:25.680Z,31.17
2022-08-09T13:18:48.107Z,30.28
2022-08-09T13:20:08.284Z,32.04
2022-08-09T13:22:37.481Z,29.68
2022-08-09T13:23:00.469Z,29.60
2022-08-09T13:24:16.912Z,29.65
2022-08-09T13:25:53.432Z,29.16
2022-08-09T13:26:58.442Z,29.65
2022-08-09T13:28:09.798Z,29.73
2022-08-09T13:29:15.098Z,29.92
2022-08-09T13:30:50.819Z,30.53
2022-08-09T13:32:26.501Z,30.73
2022-08-09T13:33:35.946Z,31.27
2022-08-09T13:34:52.302Z,30.47
2022-08-09T13:36:38.601Z,30.01
2022-08-09T13:37:51.272Z,29.78
2022-08-09T13:38:56.734Z,27.98
2022-08-09T13:41:51.858Z,28.33
2022-08-09T13:41:58.177Z,28.13
2022-08-09T13:42:46.313Z,28.28
2022-08-09T13:43:48.440Z,28.44
2022-08-09T13:44:50.479Z,29.40
2022-08-09T13:46:44.821Z,29.06
2022-08-09T13:47:31.510Z,28.84
2022-08-09T13:48:38.888Z,29.83
2022-08-09T13:49:57.360Z,29.93
2022-08-09T13:51:02.355Z,30.01
2022-08-09T13:52:05.618Z,29.77
2022-08-09T13:53:11.380Z,29.47
2022-08-09T13:54:13.519Z,28.63
2022-08-09T13:55:17.724Z,28.56
2022-08-09T13:56:25.540Z,28.84
2022-08-09T13:57:37.040Z,29.00
2022-08-09T13:58:42.462Z,29.33
2022-08-09T13:59:44.118Z,30.34
2022-08-09T14:00:46.253Z,29.83
2022-08-09T14:02:02.059Z,29.15
2022-08-09T14:03:58.125Z,27.86
2022-08-09T14:04:27.665Z,27.32
2022-08-09T14:05:58.604Z,27.23
2022-08-09T14:06:56.602Z,25.74
2022-08-09T14:08:01.436Z,26.72
2022-08-09T14:09:05.329Z,27.15
2022-08-09T14:10:08.103Z,27.47
2022-08-09T14:11:20.140Z,28.24
2022-08-09T14:12:21.788Z,29.86
2022-08-09T14:14:15.379Z,29.88
2022-08-09T14:14:47.400Z,29.39
2022-08-09T14:16:09.050Z,30.25
2022-08-09T14:17:13.057Z,31.04
2022-08-09T14:18:29.588Z,31.04
2022-08-09T14:19:33.291Z,31.07
2022-08-09T14:20:35.523Z,31.34
2022-08-09T14:21:37.291Z,31.19
2022-08-09T14:22:38.987Z,32.36
2022-08-09T14:23:54.576Z,31.07
2022-08-09T14:24:58.437Z,32.45
2022-08-09T14:26:01.722Z,31.13
2022-08-09T14:27:19.928Z,30.67
2022-08-09T14:28:22.749Z,28.99
2022-08-09T14:30:35.341Z,28.82
2022-08-09T14:30:50.561Z,28.61
2022-08-09T14:31:53.966Z,29.47
2022-08-09T14:32:56.171Z,29.03
2022-08-09T14:33:59.459Z,29.13
2022-08-09T14:35:07.136Z,28.88
2022-08-09T14:36:20.828Z,29.04
2022-08-09T14:37:28.239Z,28.54
2022-08-09T14:38:30.363Z,28.49
2022-08-09T14:39:47.536Z,28.35
2022-08-09T14:41:01.593Z,28.74
2022-08-09T14:42:29.120Z,29.21
2022-08-09T14:43:47.318Z,30.32
2022-08-09T14:45:00.116Z,30.95
2022-08-09T14:46:54.999Z,31.73
2022-08-09T14:47:42.942Z,32.69
2022-08-09T14:48:45.833Z,33.62
2022-08-09T14:50:01.980Z,33.98
2022-08-09T14:51:04.247Z,34.47
2022-08-09T14:52:07.330Z,34.91
2022-08-09T14:53:12.197Z,35.51
2022-08-09T14:54:16.740Z,36.01
2022-08-09T14:55:24.008Z,36.30
2022-08-09T14:56:26.917Z,36.77
2022-08-09T14:57:31.788Z,37.32
2022-08-09T14:58:45.420Z,37.75
2022-08-09T14:59:48.821Z,38.47
2022-08-09T15:00:52.138Z,38.40
2022-08-09T15:01:54.261Z,38.87
2022-08-09T15:02:55.949Z,39.26
2022-08-09T15:04:00.155Z,39.81
2022-08-09T15:05:06.945Z,40.64
2022-08-09T15:06:11.182Z,40.37
2022-08-09T15:07:12.936Z,40.54
2022-08-09T15:08:16.331Z,40.53
2022-08-09T15:10:03.428Z,41.49
2022-08-09T15:10:43.526Z,40.93
2022-08-09T15:12:03.997Z,41.02
2022-08-09T15:13:08.976Z,39.52
2022-08-09T15:14:13.461Z,38.60
2022-08-09T15:15:15.773Z,37.86
2022-08-09T15:16:17.797Z,37.85
2022-08-09T15:17:19.440Z,37.95
2022-08-09T15:18:21.131Z,38.23